sensor_id;sensor_type;location;lat;lon;timestamp;pressure;altitude;pressure_sealevel;temperature
61977;BMP280;45905;50.570;10.428;2023-03-01T00:01:41;99071.53;;;-1.35
61977;BMP280;45905;50.570;10.428;2023-03-01T00:04:08;99064.09;;;-1.35
61977;BMP280;45905;50.570;10.428;2023-03-01T00:06:35;99063.28;;;-1.36
61977;BMP280;45905;50.570;10.428;2023-03-01T00:09:03;99055.13;;;-1.39
61977;BMP280;45905;50.570;10.428;2023-03-01T00:11:32;99069.81;;;-1.33
61977;BMP280;45905;50.570;10.428;2023-03-01T00:14:02;99053.28;;;-1.34
61977;BMP280;45905;50.570;10.428;2023-03-01T00:16:38;99051.56;;;-1.33
61977;BMP280;45905;50.570;10.428;2023-03-01T00:19:17;99050.75;;;-1.33
61977;BMP280;45905;50.570;10.428;2023-03-01T00:21:44;99054.97;;;-1.35
61977;BMP280;45905;50.570;10.428;2023-03-01T00:24:12;99045.88;;;-1.36
61977;BMP280;45905;50.570;10.428;2023-03-01T00:26:39;99045.06;;;-1.36
61977;BMP280;45905;50.570;10.428;2023-03-01T00:29:06;99049.19;;;-1.35
61977;BMP280;45905;50.570;10.428;2023-03-01T00:31:34;99045.94;;;-1.37
61977;BMP280;45905;50.570;10.428;2023-03-01T00:34:04;99045.94;;;-1.37
61977;BMP280;45905;50.570;10.428;2023-03-01T00:36:35;99045.16;;;-1.39
61977;BMP280;45905;50.570;10.428;2023-03-01T00:39:05;99050.66;;;-1.52
61977;BMP280;45905;50.570;10.428;2023-03-01T00:41:32;99044.19;;;-1.56
61977;BMP280;45905;50.570;10.428;2023-03-01T00:44:02;99040.41;;;-1.66
61977;BMP280;45905;50.570;10.428;2023-03-01T00:46:29;99044.50;;;-1.65
61977;BMP280;45905;50.570;10.428;2023-03-01T00:48:58;99038.63;;;-1.63
61977;BMP280;45905;50.570;10.428;2023-03-01T00:51:28;99031.84;;;-1.58
61977;BMP280;45905;50.570;10.428;2023-03-01T00:53:59;99039.16;;;-1.55
61977;BMP280;45905;50.570;10.428;2023-03-01T00:56:27;99051.47;;;-1.52
61977;BMP280;45905;50.570;10.428;2023-03-01T00:58:55;99038.19;;;-1.51
61977;BMP280;45905;50.570;10.428;2023-03-01T01:01:26;99040.63;;;-1.50
61977;BMP280;45905;50.570;10.428;2023-03-01T01:04:01;99048.13;;;-1.51
61977;BMP280;45905;50.570;10.428;2023-03-01T01:06:41;99041.53;;;-1.52
61977;BMP280;45905;50.570;10.428;2023-03-01T01:09:15;99043.97;;;-1.51
61977;BMP280;45905;50.570;10.428;2023-03-01T01:11:50;99043.16;;;-1.51
61977;BMP280;45905;50.570;10.428;2023-03-01T01:14:19;99041.44;;;-1.49
61977;BMP280;45905;50.570;10.428;2023-03-01T01:16:48;99042.16;;;-1.47
61977;BMP280;45905;50.570;10.428;2023-03-01T01:19:15;99034.09;;;-1.52
61977;BMP280;45905;50.570;10.428;2023-03-01T01:21:42;99032.41;;;-1.52
61977;BMP280;45905;50.570;10.428;2023-03-01T01:24:10;99029.97;;;-1.53
61977;BMP280;45905;50.570;10.428;2023-03-01T01:26:38;99022.63;;;-1.56
61977;BMP280;45905;50.570;10.428;2023-03-01T01:29:06;99027.53;;;-1.54
61977;BMP280;45905;50.570;10.428;2023-03-01T01:31:36;99015.88;;;-1.52
61977;BMP280;45905;50.570;10.428;2023-03-01T01:34:06;99014.09;;;-1.49
61977;BMP280;45905;50.570;10.428;2023-03-01T01:36:35;99016.50;;;-1.48
61977;BMP280;45905;50.570;10.428;2023-03-01T01:39:03;99011.63;;;-1.49
61977;BMP280;45905;50.570;10.428;2023-03-01T01:41:31;99014.97;;;-1.50
61977;BMP280;45905;50.570;10.428;2023-03-01T01:44:24;98999.19;;;-1.49
61977;BMP280;45905;50.570;10.428;2023-03-01T01:47:03;98998.19;;;-1.45
61977;BMP280;45905;50.570;10.428;2023-03-01T01:49:42;99001.44;;;-1.43
61977;BMP280;45905;50.570;10.428;2023-03-01T01:52:31;98997.22;;;-1.41
61977;BMP280;45905;50.570;10.428;2023-03-01T01:55:31;98988.97;;;-1.42
61977;BMP280;45905;50.570;10.428;2023-03-01T01:58:05;98991.31;;;-1.39
61977;BMP280;45905;50.570;10.428;2023-03-01T02:00:37;98984.78;;;-1.41
61977;BMP280;45905;50.570;10.428;2023-03-01T02:03:14;98982.22;;;-1.40
61977;BMP280;45905;50.570;10.428;2023-03-01T02:05:51;98981.50;;;-1.42
61977;BMP280;45905;50.570;10.428;2023-03-01T02:08:27;98975.88;;;-1.47
61977;BMP280;45905;50.570;10.428;2023-03-01T02:10:57;98983.53;;;-1.51
61977;BMP280;45905;50.570;10.428;2023-03-01T02:13:27;98986.00;;;-1.51
61977;BMP280;45905;50.570;10.428;2023-03-01T02:15:55;98971.09;;;-1.51
61977;BMP280;45905;50.570;10.428;2023-03-01T02:18:24;98966.88;;;-1.49
61977;BMP280;45905;50.570;10.428;2023-03-01T02:21:12;98965.94;;;-1.47
61977;BMP280;45905;50.570;10.428;2023-03-01T02:23:42;98960.06;;;-1.44
61977;BMP280;45905;50.570;10.428;2023-03-01T02:26:34;98957.00;;;-1.51
61977;BMP280;45905;50.570;10.428;2023-03-01T02:29:04;98949.91;;;-1.59
61977;BMP280;45905;50.570;10.428;2023-03-01T02:31:32;98942.66;;;-1.65
61977;BMP280;45905;50.570;10.428;2023-03-01T02:34:19;98934.72;;;-1.74
61977;BMP280;45905;50.570;10.428;2023-03-01T02:36:52;98929.25;;;-1.82
61977;BMP280;45905;50.570;10.428;2023-03-01T02:39:27;98930.09;;;-1.83
61977;BMP280;45905;50.570;10.428;2023-03-01T02:41:57;98931.56;;;-1.78
61977;BMP280;45905;50.570;10.428;2023-03-01T02:44:26;98931.53;;;-1.76
61977;BMP280;45905;50.570;10.428;2023-03-01T02:46:56;98928.94;;;-1.75
61977;BMP280;45905;50.570;10.428;2023-03-01T02:49:36;98925.50;;;-1.71
61977;BMP280;45905;50.570;10.428;2023-03-01T02:55:11;98931.28;;;-1.71
61977;BMP280;45905;50.570;10.428;2023-03-01T02:57:44;98929.75;;;-1.74
61977;BMP280;45905;50.570;10.428;2023-03-01T03:00:17;98918.09;;;-1.72
61977;BMP280;45905;50.570;10.428;2023-03-01T03:02:53;98924.78;;;-1.74
61977;BMP280;45905;50.570;10.428;2023-03-01T03:05:28;98926.41;;;-1.73
61977;BMP280;45905;50.570;10.428;2023-03-01T03:07:59;98931.19;;;-1.68
61977;BMP280;45905;50.570;10.428;2023-03-01T03:10:35;98934.38;;;-1.66
61977;BMP280;45905;50.570;10.428;2023-03-01T03:13:09;98932.91;;;-1.70
61977;BMP280;45905;50.570;10.428;2023-03-01T03:15:38;98936.25;;;-1.71
61977;BMP280;45905;50.570;10.428;2023-03-01T03:18:11;98938.97;;;-1.76
61977;BMP280;45905;50.570;10.428;2023-03-01T03:20:41;98936.50;;;-1.76
61977;BMP280;45905;50.570;10.428;2023-03-01T03:23:09;98934.97;;;-1.80
61977;BMP280;45905;50.570;10.428;2023-03-01T03:25:36;98932.72;;;-1.86
61977;BMP280;45905;50.570;10.428;2023-03-01T03:28:06;98925.56;;;-1.93
61977;BMP280;45905;50.570;10.428;2023-03-01T03:30:39;98931.50;;;-1.97
61977;BMP280;45905;50.570;10.428;2023-03-01T03:33:09;98928.97;;;-1.96
61977;BMP280;45905;50.570;10.428;2023-03-01T03:35:46;98926.38;;;-1.93
61977;BMP280;45905;50.570;10.428;2023-03-01T03:38:17;98921.41;;;-1.93
61977;BMP280;45905;50.570;10.428;2023-03-01T03:40:51;98921.41;;;-1.93
61977;BMP280;45905;50.570;10.428;2023-03-01T03:43:22;98922.19;;;-1.92
61977;BMP280;45905;50.570;10.428;2023-03-01T03:45:51;98917.31;;;-1.94
61977;BMP280;45905;50.570;10.428;2023-03-01T03:48:19;98913.34;;;-1.99
61977;BMP280;45905;50.570;10.428;2023-03-01T03:50:55;98926.63;;;-2.00
61977;BMP280;45905;50.570;10.428;2023-03-01T03:53:26;98931.72;;;-2.03
61977;BMP280;45905;50.570;10.428;2023-03-01T03:55:54;98920.97;;;-2.04
61977;BMP280;45905;50.570;10.428;2023-03-01T03:58:23;98914.41;;;-2.05
61977;BMP280;45905;50.570;10.428;2023-03-01T04:00:55;98902.84;;;-2.06
61977;BMP280;45905;50.570;10.428;2023-03-01T04:03:25;98900.41;;;-2.07
61977;BMP280;45905;50.570;10.428;2023-03-01T04:05:53;98898.13;;;-2.11
61977;BMP280;45905;50.570;10.428;2023-03-01T04:08:23;98913.22;;;-2.17
61977;BMP280;45905;50.570;10.428;2023-03-01T04:10:56;98912.69;;;-2.25
61977;BMP280;45905;50.570;10.428;2023-03-01T04:13:24;98910.44;;;-2.31
61977;BMP280;45905;50.570;10.428;2023-03-01T04:15:54;98908.72;;;-2.29
61977;BMP280;45905;50.570;10.428;2023-03-01T04:18:23;98915.16;;;-2.25
61977;BMP280;45905;50.570;10.428;2023-03-01T04:20:53;98902.72;;;-2.24
61977;BMP280;45905;50.570;10.428;2023-03-01T04:23:22;98904.38;;;-2.24
61977;BMP280;45905;50.570;10.428;2023-03-01T04:25:55;98908.38;;;-2.20
61977;BMP280;45905;50.570;10.428;2023-03-01T04:28:36;98909.81;;;-2.15
61977;BMP280;45905;50.570;10.428;2023-03-01T04:31:10;98890.81;;;-2.16
61977;BMP280;45905;50.570;10.428;2023-03-01T04:33:55;98894.06;;;-2.14
61977;BMP280;45905;50.570;10.428;2023-03-01T04:36:26;98894.28;;;-2.20
61977;BMP280;45905;50.570;10.428;2023-03-01T04:38:54;98889.53;;;-2.26
61977;BMP280;45905;50.570;10.428;2023-03-01T04:41:24;98891.25;;;-2.28
61977;BMP280;45905;50.570;10.428;2023-03-01T04:43:51;98882.28;;;-2.30
61977;BMP280;45905;50.570;10.428;2023-03-01T04:46:20;98883.03;;;-2.28
61977;BMP280;45905;50.570;10.428;2023-03-01T04:48:48;98887.09;;;-2.27
61977;BMP280;45905;50.570;10.428;2023-03-01T04:51:16;98891.34;;;-2.29
61977;BMP280;45905;50.570;10.428;2023-03-01T04:53:45;98890.47;;;-2.28
61977;BMP280;45905;50.570;10.428;2023-03-01T04:56:13;98895.09;;;-2.42
61977;BMP280;45905;50.570;10.428;2023-03-01T04:58:46;98887.19;;;-2.51
61977;BMP280;45905;50.570;10.428;2023-03-01T05:01:19;98893.81;;;-2.51
61977;BMP280;45905;50.570;10.428;2023-03-01T05:03:50;98882.44;;;-2.57
61977;BMP280;45905;50.570;10.428;2023-03-01T05:06:20;98893.31;;;-2.61
61977;BMP280;45905;50.570;10.428;2023-03-01T05:08:47;98877.72;;;-2.63
61977;BMP280;45905;50.570;10.428;2023-03-01T05:11:14;98890.88;;;-2.62
61977;BMP280;45905;50.570;10.428;2023-03-01T05:13:42;98878.56;;;-2.64
61977;BMP280;45905;50.570;10.428;2023-03-01T05:16:10;98878.63;;;-2.65
61977;BMP280;45905;50.570;10.428;2023-03-01T05:18:39;98879.38;;;-2.63
61977;BMP280;45905;50.570;10.428;2023-03-01T05:21:12;98885.28;;;-2.67
61977;BMP280;45905;50.570;10.428;2023-03-01T05:23:39;98879.88;;;-2.78
61977;BMP280;45905;50.570;10.428;2023-03-01T05:26:07;98875.69;;;-2.76
61977;BMP280;45905;50.570;10.428;2023-03-01T05:28:53;98875.63;;;-2.74
61977;BMP280;45905;50.570;10.428;2023-03-01T05:31:26;98871.53;;;-2.75
61977;BMP280;45905;50.570;10.428;2023-03-01T05:33:54;98864.16;;;-2.77
61977;BMP280;45905;50.570;10.428;2023-03-01T05:36:21;98864.91;;;-2.75
61977;BMP280;45905;50.570;10.428;2023-03-01T05:38:48;98862.38;;;-2.73
61977;BMP280;45905;50.570;10.428;2023-03-01T05:41:15;98867.38;;;-2.75
61977;BMP280;45905;50.570;10.428;2023-03-01T05:43:43;98858.19;;;-2.71
61977;BMP280;45905;50.570;10.428;2023-03-01T05:46:12;98864.69;;;-2.69
61977;BMP280;45905;50.570;10.428;2023-03-01T05:48:40;98861.53;;;-2.72
61977;BMP280;45905;50.570;10.428;2023-03-01T05:51:08;98868.34;;;-2.79
61977;BMP280;45905;50.570;10.428;2023-03-01T05:53:35;98865.88;;;-2.79
61977;BMP280;45905;50.570;10.428;2023-03-01T05:56:05;98861.72;;;-2.78
61977;BMP280;45905;50.570;10.428;2023-03-01T05:58:32;98865.81;;;-2.77
61977;BMP280;45905;50.570;10.428;2023-03-01T06:01:00;98859.94;;;-2.75
61977;BMP280;45905;50.570;10.428;2023-03-01T06:03:27;98858.28;;;-2.74
61977;BMP280;45905;50.570;10.428;2023-03-01T06:05:57;98859.91;;;-2.73
61977;BMP280;45905;50.570;10.428;2023-03-01T06:08:25;98870.63;;;-2.73
61977;BMP280;45905;50.570;10.428;2023-03-01T06:10:54;98869.00;;;-2.74
61977;BMP280;45905;50.570;10.428;2023-03-01T06:13:22;98864.97;;;-2.76
61977;BMP280;45905;50.570;10.428;2023-03-01T06:15:50;98869.19;;;-2.80
61977;BMP280;45905;50.570;10.428;2023-03-01T06:18:17;98854.50;;;-2.84
61977;BMP280;45905;50.570;10.428;2023-03-01T06:20:45;98859.72;;;-2.91
61977;BMP280;45905;50.570;10.428;2023-03-01T06:23:12;98862.34;;;-2.96
61977;BMP280;45905;50.570;10.428;2023-03-01T06:25:39;98855.03;;;-2.99
61977;BMP280;45905;50.570;10.428;2023-03-01T06:28:06;98858.31;;;-2.98
61977;BMP280;45905;50.570;10.428;2023-03-01T06:30:33;98861.63;;;-2.98
61977;BMP280;45905;50.570;10.428;2023-03-01T06:33:00;98868.13;;;-2.95
61977;BMP280;45905;50.570;10.428;2023-03-01T06:35:29;98875.72;;;-3.00
61977;BMP280;45905;50.570;10.428;2023-03-01T06:38:02;98871.56;;;-2.99
61977;BMP280;45905;50.570;10.428;2023-03-01T06:40:31;98877.25;;;-2.97
61977;BMP280;45905;50.570;10.428;2023-03-01T06:42:58;98864.78;;;-2.94
61977;BMP280;45905;50.570;10.428;2023-03-01T06:45:26;98865.63;;;-2.95
61977;BMP280;45905;50.570;10.428;2023-03-01T06:48:02;98870.72;;;-2.98
61977;BMP280;45905;50.570;10.428;2023-03-01T06:50:31;98871.56;;;-2.99
61977;BMP280;45905;50.570;10.428;2023-03-01T06:52:58;98880.63;;;-2.98
61977;BMP280;45905;50.570;10.428;2023-03-01T06:55:26;98868.41;;;-3.04
61977;BMP280;45905;50.570;10.428;2023-03-01T06:58:01;98872.63;;;-3.06
61977;BMP280;45905;50.570;10.428;2023-03-01T07:00:29;98876.72;;;-3.05
61977;BMP280;45905;50.570;10.428;2023-03-01T07:03:00;98870.00;;;-3.02
61977;BMP280;45905;50.570;10.428;2023-03-01T07:05:30;98868.25;;;-2.98
61977;BMP280;45905;50.570;10.428;2023-03-01T07:07:57;98868.13;;;-2.95
61977;BMP280;45905;50.570;10.428;2023-03-01T07:10:24;98870.50;;;-2.92
61977;BMP280;45905;50.570;10.428;2023-03-01T07:12:56;98868.03;;;-2.92
61977;BMP280;45905;50.570;10.428;2023-03-01T07:15:25;98862.97;;;-2.89
61977;BMP280;45905;50.570;10.428;2023-03-01T07:17:52;98869.50;;;-2.88
61977;BMP280;45905;50.570;10.428;2023-03-01T07:20:20;98866.09;;;-2.85
61977;BMP280;45905;50.570;10.428;2023-03-01T07:22:54;98864.47;;;-2.86
61977;BMP280;45905;50.570;10.428;2023-03-01T07:25:22;98862.75;;;-2.84
61977;BMP280;45905;50.570;10.428;2023-03-01T07:27:53;98853.63;;;-2.83
61977;BMP280;45905;50.570;10.428;2023-03-01T07:30:21;98855.25;;;-2.82
61977;BMP280;45905;50.570;10.428;2023-03-01T07:32:48;98852.72;;;-2.81
61977;BMP280;45905;50.570;10.428;2023-03-01T07:35:16;98849.38;;;-2.80
61977;BMP280;45905;50.570;10.428;2023-03-01T07:37:44;98846.03;;;-2.79
61977;BMP280;45905;50.570;10.428;2023-03-01T07:40:12;98842.81;;;-2.81
61977;BMP280;45905;50.570;10.428;2023-03-01T07:42:39;98841.25;;;-2.83
61977;BMP280;45905;50.570;10.428;2023-03-01T07:45:07;98842.88;;;-2.82
61977;BMP280;45905;50.570;10.428;2023-03-01T07:47:34;98841.94;;;-2.80
61977;BMP280;45905;50.570;10.428;2023-03-01T07:50:03;98851.78;;;-2.78
61977;BMP280;45905;50.570;10.428;2023-03-01T07:52:30;98836.81;;;-2.75
61977;BMP280;45905;50.570;10.428;2023-03-01T07:54:58;98839.22;;;-2.72
61977;BMP280;45905;50.570;10.428;2023-03-01T07:57:25;98836.44;;;-2.65
61977;BMP280;45905;50.570;10.428;2023-03-01T07:59:52;98832.88;;;-2.58
61977;BMP280;45905;50.570;10.428;2023-03-01T08:02:19;98837.78;;;-2.57
61977;BMP280;45905;50.570;10.428;2023-03-01T08:04:46;98840.91;;;-2.52
61977;BMP280;45905;50.570;10.428;2023-03-01T08:07:13;98834.06;;;-2.46
61977;BMP280;45905;50.570;10.428;2023-03-01T08:09:41;98843.00;;;-2.42
61977;BMP280;45905;50.570;10.428;2023-03-01T08:12:08;98845.34;;;-2.37
61977;BMP280;45905;50.570;10.428;2023-03-01T08:14:35;98831.03;;;-2.31
61977;BMP280;45905;50.570;10.428;2023-03-01T08:17:02;98836.44;;;-2.22
61977;BMP280;45905;50.570;10.428;2023-03-01T08:19:30;98835.31;;;-2.13
61977;BMP280;45905;50.570;10.428;2023-03-01T08:21:57;98839.09;;;-2.05
61977;BMP280;45905;50.570;10.428;2023-03-01T08:24:25;98837.25;;;-2.00
61977;BMP280;45905;50.570;10.428;2023-03-01T08:26:53;98836.22;;;-1.95
61977;BMP280;45905;50.570;10.428;2023-03-01T08:29:21;98835.97;;;-1.89
61977;BMP280;45905;50.570;10.428;2023-03-01T08:31:48;98831.66;;;-1.84
61977;BMP280;45905;50.570;10.428;2023-03-01T08:34:18;98831.38;;;-1.77
61977;BMP280;45905;50.570;10.428;2023-03-01T08:36:46;98826.09;;;-1.70
61977;BMP280;45905;50.570;10.428;2023-03-01T08:39:16;98829.94;;;-1.63
61977;BMP280;45905;50.570;10.428;2023-03-01T08:41:43;98838.03;;;-1.58
61977;BMP280;45905;50.570;10.428;2023-03-01T08:44:15;98824.50;;;-1.51
61977;BMP280;45905;50.570;10.428;2023-03-01T08:46:44;98823.31;;;-1.43
61977;BMP280;45905;50.570;10.428;2023-03-01T08:49:17;98818.03;;;-1.35
61977;BMP280;45905;50.570;10.428;2023-03-01T08:51:46;98806.03;;;-1.26
61977;BMP280;45905;50.570;10.428;2023-03-01T08:54:20;98805.78;;;-1.20
61977;BMP280;45905;50.570;10.428;2023-03-01T08:56:49;98794.78;;;-1.15
61977;BMP280;45905;50.570;10.428;2023-03-01T08:59:17;98792.78;;;-1.07
61977;BMP280;45905;50.570;10.428;2023-03-01T09:01:44;98794.13;;;-1.00
61977;BMP280;45905;50.570;10.428;2023-03-01T09:04:14;98791.31;;;-0.93
61977;BMP280;45905;50.570;10.428;2023-03-01T09:06:42;98784.38;;;-0.87
61977;BMP280;45905;50.570;10.428;2023-03-01T09:09:16;98776.63;;;-0.79
61977;BMP280;45905;50.570;10.428;2023-03-01T09:11:44;98770.50;;;-0.73
61977;BMP280;45905;50.570;10.428;2023-03-01T09:14:16;98764.31;;;-0.64
61977;BMP280;45905;50.570;10.428;2023-03-01T09:16:44;98765.50;;;-0.55
61977;BMP280;45905;50.570;10.428;2023-03-01T09:19:12;98760.72;;;-0.41
61977;BMP280;45905;50.570;10.428;2023-03-01T09:21:40;98756.13;;;-0.32
61977;BMP280;45905;50.570;10.428;2023-03-01T09:24:14;98759.88;;;-0.23
61977;BMP280;45905;50.570;10.428;2023-03-01T09:26:42;98766.09;;;-0.15
61977;BMP280;45905;50.570;10.428;2023-03-01T09:29:16;98754.91;;;-0.07
61977;BMP280;45905;50.570;10.428;2023-03-01T09:31:43;98741.44;;;-0.03
61977;BMP280;45905;50.570;10.428;2023-03-01T09:34:10;98744.53;;;0.02
61977;BMP280;45905;50.570;10.428;2023-03-01T09:36:37;98739.28;;;0.08
61977;BMP280;45905;50.570;10.428;2023-03-01T09:39:05;98737.22;;;0.16
61977;BMP280;45905;50.570;10.428;2023-03-01T09:46:53;98731.72;;;0.42
61977;BMP280;45905;50.570;10.428;2023-03-01T09:49:34;98731.75;;;0.57
61977;BMP280;45905;50.570;10.428;2023-03-01T09:52:38;98723.09;;;0.64
61977;BMP280;45905;50.570;10.428;2023-03-01T09:55:30;98721.88;;;0.71
61977;BMP280;45905;50.570;10.428;2023-03-01T10:01:35;98716.22;;;0.84
61977;BMP280;45905;50.570;10.428;2023-03-01T10:04:46;98711.25;;;0.99
61977;BMP280;45905;50.570;10.428;2023-03-01T10:10:36;98715.88;;;1.22
61977;BMP280;45905;50.570;10.428;2023-03-01T10:13:18;98713.78;;;1.30
61977;BMP280;45905;50.570;10.428;2023-03-01T10:16:14;98714.78;;;1.41
61977;BMP280;45905;50.570;10.428;2023-03-01T10:18:55;98714.50;;;1.47
61977;BMP280;45905;50.570;10.428;2023-03-01T10:21:27;98705.13;;;1.50
61977;BMP280;45905;50.570;10.428;2023-03-01T10:24:19;98698.03;;;1.58
61977;BMP280;45905;50.570;10.428;2023-03-01T10:26:55;98696.88;;;1.78
61977;BMP280;45905;50.570;10.428;2023-03-01T10:29:39;98695.72;;;1.99
61977;BMP280;45905;50.570;10.428;2023-03-01T10:32:10;98691.81;;;2.09
61977;BMP280;45905;50.570;10.428;2023-03-01T10:34:38;98698.06;;;2.15
61977;BMP280;45905;50.570;10.428;2023-03-01T10:37:11;98686.66;;;2.25
61977;BMP280;45905;50.570;10.428;2023-03-01T10:40:02;98684.69;;;2.30
61977;BMP280;45905;50.570;10.428;2023-03-01T10:42:49;98682.03;;;2.33
61977;BMP280;45905;50.570;10.428;2023-03-01T10:45:39;98668.28;;;2.40
61977;BMP280;45905;50.570;10.428;2023-03-01T10:48:19;98672.75;;;2.48
61977;BMP280;45905;50.570;10.428;2023-03-01T10:53:38;98658.28;;;2.67
61977;BMP280;45905;50.570;10.428;2023-03-01T10:56:10;98656.69;;;2.80
61977;BMP280;45905;50.570;10.428;2023-03-01T10:58:58;98660.69;;;2.96
61977;BMP280;45905;50.570;10.428;2023-03-01T11:01:35;98652.06;;;3.13
61977;BMP280;45905;50.570;10.428;2023-03-01T11:04:13;98656.44;;;3.23
61977;BMP280;45905;50.570;10.428;2023-03-01T11:06:41;98653.63;;;3.28
61977;BMP280;45905;50.570;10.428;2023-03-01T11:09:18;98649.25;;;3.31
61977;BMP280;45905;50.570;10.428;2023-03-01T11:11:46;98640.22;;;3.55
61977;BMP280;45905;50.570;10.428;2023-03-01T11:14:35;98634.19;;;3.83
61977;BMP280;45905;50.570;10.428;2023-03-01T11:19:43;98626.47;;;3.98
61977;BMP280;45905;50.570;10.428;2023-03-01T11:22:30;98629.03;;;4.10
61977;BMP280;45905;50.570;10.428;2023-03-01T11:24:59;98626.31;;;4.25
61977;BMP280;45905;50.570;10.428;2023-03-01T11:27:44;98618.59;;;4.28
61977;BMP280;45905;50.570;10.428;2023-03-01T11:30:28;98610.28;;;4.28
61977;BMP280;45905;50.570;10.428;2023-03-01T11:35:49;98608.75;;;4.38
61977;BMP280;45905;50.570;10.428;2023-03-01T11:38:27;98604.03;;;4.45
61977;BMP280;45905;50.570;10.428;2023-03-01T11:41:20;98605.50;;;4.60
61977;BMP280;45905;50.570;10.428;2023-03-01T11:44:00;98605.38;;;4.74
61977;BMP280;45905;50.570;10.428;2023-03-01T12:07:23;98569.91;;;5.59
61977;BMP280;45905;50.570;10.428;2023-03-01T12:18:49;98559.38;;;5.98
61977;BMP280;45905;50.570;10.428;2023-03-01T12:38:46;98524.00;;;6.85
61977;BMP280;45905;50.570;10.428;2023-03-01T12:41:28;98524.91;;;6.95
61977;BMP280;45905;50.570;10.428;2023-03-01T12:44:42;98521.06;;;7.11
61977;BMP280;45905;50.570;10.428;2023-03-01T12:47:49;98505.44;;;7.28
61977;BMP280;45905;50.570;10.428;2023-03-01T12:50:45;98503.31;;;7.43
61977;BMP280;45905;50.570;10.428;2023-03-01T12:53:41;98500.72;;;7.54
61977;BMP280;45905;50.570;10.428;2023-03-01T12:56:21;98495.06;;;7.61
61977;BMP280;45905;50.570;10.428;2023-03-01T12:59:02;98493.97;;;7.75
61977;BMP280;45905;50.570;10.428;2023-03-01T13:01:49;98486.38;;;7.75
61977;BMP280;45905;50.570;10.428;2023-03-01T13:11:03;98484.78;;;7.74
61977;BMP280;45905;50.570;10.428;2023-03-01T13:13:32;98490.28;;;7.79
61977;BMP280;45905;50.570;10.428;2023-03-01T13:19:14;98490.50;;;7.76
61977;BMP280;45905;50.570;10.428;2023-03-01T13:21:45;98491.13;;;7.68
61977;BMP280;45905;50.570;10.428;2023-03-01T13:24:38;98489.25;;;7.61
61977;BMP280;45905;50.570;10.428;2023-03-01T13:29:49;98494.53;;;7.58
61977;BMP280;45905;50.570;10.428;2023-03-01T13:32:29;98497.28;;;7.55
61977;BMP280;45905;50.570;10.428;2023-03-01T13:37:42;98496.09;;;7.39
61977;BMP280;45905;50.570;10.428;2023-03-01T13:42:52;98486.41;;;7.35
61977;BMP280;45905;50.570;10.428;2023-03-01T13:45:42;98491.06;;;7.39
61977;BMP280;45905;50.570;10.428;2023-03-01T13:48:21;98489.22;;;7.41
61977;BMP280;45905;50.570;10.428;2023-03-01T13:51:15;98501.72;;;7.43
61977;BMP280;45905;50.570;10.428;2023-03-01T13:53:47;98486.59;;;7.43
61977;BMP280;45905;50.570;10.428;2023-03-01T13:56:25;98504.13;;;7.44
61977;BMP280;45905;50.570;10.428;2023-03-01T13:59:02;98493.22;;;7.43
61977;BMP280;45905;50.570;10.428;2023-03-01T14:01:35;98497.22;;;7.46
61977;BMP280;45905;50.570;10.428;2023-03-01T14:04:20;98484.50;;;7.47
61977;BMP280;45905;50.570;10.428;2023-03-01T14:06:47;98489.81;;;7.54
61977;BMP280;45905;50.570;10.428;2023-03-01T14:09:26;98495.44;;;7.57
61977;BMP280;45905;50.570;10.428;2023-03-01T14:12:06;98488.09;;;7.54
61977;BMP280;45905;50.570;10.428;2023-03-01T14:14:44;98490.47;;;7.66
61977;BMP280;45905;50.570;10.428;2023-03-01T14:17:52;98495.56;;;7.76
61977;BMP280;45905;50.570;10.428;2023-03-01T14:20:30;98483.47;;;7.79
61977;BMP280;45905;50.570;10.428;2023-03-01T14:23:02;98486.97;;;7.78
61977;BMP280;45905;50.570;10.428;2023-03-01T14:25:37;98483.06;;;7.74
61977;BMP280;45905;50.570;10.428;2023-03-01T14:28:26;98483.00;;;7.85
61977;BMP280;45905;50.570;10.428;2023-03-01T14:30:58;98479.44;;;7.87
61977;BMP280;45905;50.570;10.428;2023-03-01T14:33:28;98472.53;;;7.89
61977;BMP280;45905;50.570;10.428;2023-03-01T14:36:10;98466.72;;;7.98
61977;BMP280;45905;50.570;10.428;2023-03-01T14:38:40;98466.31;;;8.13
61977;BMP280;45905;50.570;10.428;2023-03-01T14:41:21;98470.81;;;8.10
61977;BMP280;45905;50.570;10.428;2023-03-01T14:44:06;98475.28;;;8.06
61977;BMP280;45905;50.570;10.428;2023-03-01T14:46:38;98473.09;;;7.93
61977;BMP280;45905;50.570;10.428;2023-03-01T14:49:19;98474.63;;;7.84
61977;BMP280;45905;50.570;10.428;2023-03-01T14:51:58;98463.75;;;7.84
61977;BMP280;45905;50.570;10.428;2023-03-01T14:54:41;98466.63;;;7.80
61977;BMP280;45905;50.570;10.428;2023-03-01T14:57:23;98460.50;;;7.73
61977;BMP280;45905;50.570;10.428;2023-03-01T15:00:23;98465.06;;;7.79
61977;BMP280;45905;50.570;10.428;2023-03-01T15:02:53;98458.53;;;7.76
61977;BMP280;45905;50.570;10.428;2023-03-01T15:05:32;98464.38;;;7.77
61977;BMP280;45905;50.570;10.428;2023-03-01T15:08:03;98460.94;;;7.78
61977;BMP280;45905;50.570;10.428;2023-03-01T15:10:35;98461.84;;;7.77
61977;BMP280;45905;50.570;10.428;2023-03-01T15:13:22;98455.63;;;7.80
61977;BMP280;45905;50.570;10.428;2023-03-01T15:16:01;98452.56;;;7.77
61977;BMP280;45905;50.570;10.428;2023-03-01T15:18:30;98453.31;;;7.68
61977;BMP280;45905;50.570;10.428;2023-03-01T15:21:18;98448.16;;;7.70
61977;BMP280;45905;50.570;10.428;2023-03-01T15:23:54;98455.84;;;7.68
61977;BMP280;45905;50.570;10.428;2023-03-01T15:26:41;98445.00;;;7.57
61977;BMP280;45905;50.570;10.428;2023-03-01T15:29:19;98449.66;;;7.52
61977;BMP280;45905;50.570;10.428;2023-03-01T15:32:00;98451.91;;;7.55
61977;BMP280;45905;50.570;10.428;2023-03-01T15:34:34;98453.25;;;7.59
61977;BMP280;45905;50.570;10.428;2023-03-01T15:37:06;98464.56;;;7.64
61977;BMP280;45905;50.570;10.428;2023-03-01T15:39:56;98455.09;;;7.57
61977;BMP280;45905;50.570;10.428;2023-03-01T15:47:51;98453.19;;;7.30
61977;BMP280;45905;50.570;10.428;2023-03-01T15:50:46;98458.53;;;7.16
61977;BMP280;45905;50.570;10.428;2023-03-01T15:53:21;98448.38;;;7.07
61977;BMP280;45905;50.570;10.428;2023-03-01T15:55:48;98452.78;;;6.94
61977;BMP280;45905;50.570;10.428;2023-03-01T15:58:23;98458.91;;;6.81
61977;BMP280;45905;50.570;10.428;2023-03-01T16:00:51;98465.47;;;6.73
61977;BMP280;45905;50.570;10.428;2023-03-01T16:03:28;98458.53;;;6.55
61977;BMP280;45905;50.570;10.428;2023-03-01T16:05:56;98466.56;;;6.38
61977;BMP280;45905;50.570;10.428;2023-03-01T16:08:23;98463.69;;;6.32
61977;BMP280;45905;50.570;10.428;2023-03-01T16:10:50;98473.19;;;6.18